• Join FlightAware (Why Join?)
  • Login
  • US Flag 
10:22AM EDT


 

Airport Tracker/Info


-or-


 

Live Flight TrackerFlight Track Log ✈ PDT4155 ✈ 20-Dec-2013 ✈ KBGM - KPHL

Flight Track Log - Related Links

Times and Time Zones

All times are in EST time to prevent confusion due to time zone crossing. See the PDT4155 flight status page for this flight to view local times or setup timezone preferences in your user account.

Time Position Orientation Groundspeed Altitude Reporting Facility
EST Latitude Longitude Course Direction KTS MPH feet Rate Location/Type
07:02AM 42.0100 -75.9147 180° South  Level Estimated
07:03AM 41.9590 -75.9184 183° South  Level FlightAware Approximate
07:04AM 41.9081 -75.9220 183° South  Level FlightAware Approximate
07:05AM 41.8586 -75.9050 154° Southeast  Level Estimated
07:06AM 41.8076 -75.9034 179° South  Level FlightAware Approximate
07:07AM 41.7582 -75.8860 160° South  Level Estimated
07:08AM 41.7089 -75.8686 159° South  Level Estimated
07:09AM 41.6593 -75.8523 166° South  Level FlightAware Approximate
07:10AM 41.6097 -75.8360 166° South  Level FlightAware Approximate
07:11AM 41.5604 -75.8186 153° Southeast  Level Estimated
07:12AM 41.5110 -75.8013 161° South  Level Estimated
07:13AM 41.4630 -75.7780 160° South  Level FlightAware Approximate
07:14AM 41.4150 -75.7548 160° South  Level FlightAware Approximate
07:15AM 41.3670 -75.7317 160° South  Level FlightAware Approximate
07:16AM 41.3175 -75.7150 162° South  Level Estimated
07:17AM 41.2694 -75.6925 161° South  Level FlightAware Approximate
07:18AM 41.2212 -75.6699 161° South  Level FlightAware Approximate
07:19AM 41.1731 -75.6474 161° South  Level FlightAware Approximate
07:20AM 41.1250 -75.6249 161° South  Level FlightAware Approximate
07:21AM 41.0753 -75.6094 159° South  Level Estimated
07:22AM 41.0256 -75.5939 163° South  Level Estimated
07:23AM 40.9774 -75.5714 161° South  Level FlightAware Approximate
07:23AM 40.8333 -75.6333 182° South 216 249 6,100  Level Philadelphia TRACON
07:24AM 40.9293 -75.5489 161° South  Level FlightAware Approximate
07:24AM 40.7500 -75.6333 180° South 216 249 6,100  Level Philadelphia TRACON
07:25AM 40.8812 -75.5264 161° South  Level FlightAware Approximate
07:25AM 40.7000 -75.6333 180° South 215 247 6,100  Level Philadelphia TRACON
07:26AM 40.8330 -75.5040 161° South  Level FlightAware Approximate
07:26AM 40.6500 -75.6167 166° South 224 258 5,600  Level Philadelphia TRACON
07:27AM 40.7831 -75.4902 190° South  Level Estimated
07:27AM 40.5667 -75.6000 171° South 241 277 5,000  Level Philadelphia TRACON
07:28AM 40.7320 -75.4919 182° South  Level FlightAware Approximate
07:29AM 40.5000 -75.5333 143° Southeast 230 265 5,000  Level Philadelphia TRACON
07:30AM 40.4500 -75.5000 153° Southeast 227 261 5,000  Level Philadelphia TRACON
07:31AM 40.4000 -75.4500 143° Southeast 227 261 5,000  Level Philadelphia TRACON
07:32AM 40.3500 -75.4167 153° Southeast 227 261 5,000 -480 Level Philadelphia TRACON
07:33AM 40.2833 -75.3500 143° Southeast 253 291 4,000 -480 Descending Philadelphia TRACON
07:34AM 40.2333 -75.3000 143° Southeast 241 277 4,000  Level Philadelphia TRACON
07:35AM 40.1667 -75.2667 159° South 232 267 4,000  Level Philadelphia TRACON
07:36AM 40.1167 -75.2167 143° Southeast 233 268 4,000  Level Philadelphia TRACON
07:37AM 40.0667 -75.1667 143° Southeast 233 268 4,000 -300 Level Philadelphia TRACON
07:38AM 40.0000 -75.1333 159° South 236 272 3,400 -900 Descending Philadelphia TRACON
07:39AM 39.9500 -75.1333 180° South 205 236 2,200 -900 Descending Philadelphia TRACON
07:40AM 39.9000 -75.1500 194° South 128 147 1,600 -780 Descending Philadelphia TRACON
07:41AM 39.8833 -75.1833 237° Southwest 101 116 700 -900 Descending Philadelphia TRACON